Berkeley Springs, West Virginia
Current Conditions -  °F | °C
As of 4:53 PM on Saturday 25 Oct 2014 (Local Time) from KMRB Reporting Station
Clear Clear  
Wind Chill: 72°   Ceiling: Unl
Heat Index: 72°   Visibility: 10mi
Dew Point: 40°   Wind: 12mph
Humidity: 31%   Direction: 230°SW
Pressure: 29.76"   Gusts: NA
Location:  39.63°N, 78.23°W
Report Text: KMRB 252053Z AUTO 23010KT 10SM CLR 22/04 A2976 RMK AO2 SLP077 T02220044 56025 TSNO $
Loading
Personal Weather Stations






























Interactive Weather Map
Tropical Storm Tracking
New forecast layout! Learn more

10-Day Weather Forecast

Advertisements
Track Severe Weather on mobile